createdAt,value
2019-05-10T00:02:17.669Z,97519.98
2019-05-10T00:06:00.942Z,97528.18
2019-05-10T00:09:26.770Z,97530.83
2019-05-10T00:12:54.658Z,97529.05
2019-05-10T00:16:20.401Z,97528.26
2019-05-10T00:19:47.155Z,97527.64
2019-05-10T00:23:12.875Z,97526.88
2019-05-10T00:26:38.621Z,97524.91
2019-05-10T00:30:08.308Z,97532.52
2019-05-10T00:33:35.554Z,97536.73
2019-05-10T00:37:01.194Z,97534.26
2019-05-10T00:40:26.841Z,97532.37
2019-05-10T00:43:52.490Z,97535.86
2019-05-10T00:47:18.242Z,97532.95
2019-05-10T00:50:44.014Z,97518.59
2019-05-10T00:54:09.770Z,97533.41
2019-05-10T00:57:35.428Z,97533.98
2019-05-10T01:01:01.041Z,97534.61
2019-05-10T01:04:27.020Z,97538.23
2019-05-10T01:07:52.660Z,97540.73
2019-05-10T01:11:18.286Z,97539.13
2019-05-10T01:14:43.998Z,97546.63
2019-05-10T01:18:09.647Z,97546.92
2019-05-10T01:21:35.934Z,97546.77
2019-05-10T01:25:01.575Z,97549.66
2019-05-10T01:28:27.416Z,97547.90
2019-05-10T01:31:53.105Z,97557.25
2019-05-10T01:35:18.719Z,97558.42
2019-05-10T01:38:44.452Z,97557.19
2019-05-10T01:42:11.890Z,97560.33
2019-05-10T01:45:37.539Z,97566.11
2019-05-10T01:49:03.163Z,97561.07
2019-05-10T01:52:28.787Z,97565.56
2019-05-10T01:55:54.375Z,97564.72
2019-05-10T01:59:20.015Z,97569.72
2019-05-10T02:02:50.335Z,97571.09
2019-05-10T02:06:17.667Z,97580.86
2019-05-10T02:09:43.283Z,97584.14
2019-05-10T02:13:08.991Z,97586.21
2019-05-10T02:16:34.695Z,97592.72
2019-05-10T02:20:00.341Z,97594.88
2019-05-10T02:23:25.931Z,97601.72
2019-05-10T02:26:51.537Z,97604.55
2019-05-10T02:30:17.810Z,97602.99
2019-05-10T02:33:43.505Z,97602.64
2019-05-10T02:37:09.333Z,97604.77
2019-05-10T02:40:34.944Z,97606.54
2019-05-10T02:44:00.689Z,97606.71
2019-05-10T02:47:26.331Z,97603.34
2019-05-10T02:50:52.739Z,97609.33
2019-05-10T02:54:19.083Z,97614.75
2019-05-10T02:57:45.602Z,97621.30
2019-05-10T03:01:14.289Z,97622.11
2019-05-10T03:04:39.998Z,97625.30
2019-05-10T03:08:06.301Z,97633.72
2019-05-10T03:11:50.264Z,97630.67
2019-05-10T03:15:16.600Z,97630.34
2019-05-10T03:18:45.904Z,97641.84
2019-05-10T03:22:11.581Z,97643.66
2019-05-10T03:25:37.415Z,97638.11
2019-05-10T03:29:03.225Z,97648.05
2019-05-10T03:32:28.853Z,97652.34
2019-05-10T03:35:54.451Z,97649.01
2019-05-10T03:39:20.089Z,97651.86
2019-05-10T03:42:45.710Z,97637.06
2019-05-10T03:46:11.343Z,97658.11
2019-05-10T03:49:36.968Z,97657.05
2019-05-10T03:53:02.603Z,97657.05
2019-05-10T03:56:30.064Z,97663.43
2019-05-10T03:59:55.571Z,97665.19
2019-05-10T04:03:21.255Z,97667.73
2019-05-10T04:06:46.889Z,97667.64
2019-05-10T04:10:29.896Z,97670.50
2019-05-10T04:13:55.465Z,97679.78
2019-05-10T04:17:21.097Z,97679.91
2019-05-10T04:20:46.696Z,97680.09
2019-05-10T04:24:12.336Z,97684.56
2019-05-10T04:27:37.943Z,97693.47
2019-05-10T04:31:03.752Z,97699.83
2019-05-10T04:34:29.407Z,97702.01
2019-05-10T04:37:55.279Z,97705.86
2019-05-10T04:41:21.114Z,97707.53
2019-05-10T04:44:46.721Z,97702.75
2019-05-10T04:48:13.040Z,97703.94
2019-05-10T04:51:38.785Z,97708.95
2019-05-10T04:55:07.195Z,97715.16
2019-05-10T04:58:33.115Z,97717.90
2019-05-10T05:01:58.708Z,97718.38
2019-05-10T05:05:24.332Z,97718.25
2019-05-10T05:08:50.330Z,97720.16
2019-05-10T05:12:15.945Z,97728.25
2019-05-10T05:15:41.530Z,97730.11
2019-05-10T05:19:07.116Z,97736.45
2019-05-10T05:22:32.731Z,97732.36
2019-05-10T05:25:58.394Z,97746.37
2019-05-10T05:29:26.580Z,97749.17
2019-05-10T05:32:52.184Z,97755.38
2019-05-10T05:36:17.768Z,97759.47
2019-05-10T05:39:43.366Z,97760.33
2019-05-10T05:43:09.916Z,97763.88
2019-05-10T05:46:36.010Z,97765.12
2019-05-10T05:50:01.585Z,97766.85
2019-05-10T05:53:27.193Z,97765.12
2019-05-10T05:56:53.198Z,97762.91
2019-05-10T06:00:19.227Z,97767.14
2019-05-10T06:03:44.834Z,97769.66
2019-05-10T06:07:10.620Z,97770.71
2019-05-10T06:10:36.193Z,97780.67
2019-05-10T06:14:03.867Z,97788.19
2019-05-10T06:17:31.526Z,97783.30
2019-05-10T06:20:56.416Z,97787.76
2019-05-10T06:24:21.999Z,97779.21
2019-05-10T06:27:47.695Z,97788.34
2019-05-10T06:31:13.283Z,97789.63
2019-05-10T06:34:40.314Z,97797.76
2019-05-10T06:38:05.931Z,97806.63
2019-05-10T06:41:32.712Z,97806.38
2019-05-10T06:44:58.356Z,97808.94
2019-05-10T06:48:27.422Z,97807.20
2019-05-10T06:51:51.242Z,97808.84
2019-05-10T06:55:17.995Z,97807.97
2019-05-10T06:58:43.569Z,97812.27
2019-05-10T07:02:09.179Z,97806.47
2019-05-10T07:05:34.764Z,97815.34
2019-05-10T07:09:00.782Z,97824.44
2019-05-10T07:12:30.126Z,97823.16
2019-05-10T07:15:55.502Z,97825.39
2019-05-10T07:19:21.087Z,97830.92
2019-05-10T07:22:46.740Z,97834.18
2019-05-10T07:26:17.662Z,97839.83
2019-05-10T07:29:43.476Z,97847.22
2019-05-10T07:33:06.957Z,97852.34
2019-05-10T07:36:33.014Z,97850.34
2019-05-10T07:39:58.590Z,97846.02
2019-05-10T07:43:28.581Z,97850.14
2019-05-10T07:46:56.379Z,97851.02
2019-05-10T07:50:20.883Z,97854.53
2019-05-10T07:53:46.450Z,97856.33
2019-05-10T07:57:12.069Z,97856.34
2019-05-10T08:00:43.876Z,97856.59
2019-05-10T08:04:05.035Z,97862.70
2019-05-10T08:07:30.959Z,97865.66
2019-05-10T08:10:56.567Z,97871.41
2019-05-10T08:14:25.087Z,97872.72
2019-05-10T08:17:50.955Z,97875.54
2019-05-10T08:21:22.512Z,97881.91
2019-05-10T08:24:52.086Z,97875.31
2019-05-10T08:28:12.744Z,97888.50
2019-05-10T08:31:40.790Z,97880.61
2019-05-10T08:35:16.441Z,97884.42
2019-05-10T08:38:39.703Z,97884.33
2019-05-10T08:42:28.563Z,97893.64
2019-05-10T08:45:33.600Z,97901.98
2019-05-10T08:48:59.196Z,97896.46
2019-05-10T08:52:30.682Z,97891.69
2019-05-10T08:55:52.623Z,97899.56
2019-05-10T08:59:23.805Z,97902.17
2019-05-10T09:02:46.925Z,97900.85
2019-05-10T09:06:16.757Z,97906.79
2019-05-10T09:09:45.788Z,97916.27
2019-05-10T09:13:08.012Z,97910.29
2019-05-10T09:16:39.261Z,97916.22
2019-05-10T09:20:02.722Z,97916.55
2019-05-10T09:23:28.234Z,97907.97
2019-05-10T09:26:56.999Z,97905.96
2019-05-10T09:30:36.641Z,97899.30
2019-05-10T09:34:02.709Z,97910.31
2019-05-10T09:37:28.295Z,97901.97
2019-05-10T09:40:56.244Z,97905.95
2019-05-10T09:44:22.900Z,97919.31
2019-05-10T09:47:49.813Z,97908.30
2019-05-10T09:51:19.075Z,97911.46
2019-05-10T09:54:42.722Z,97913.95
2019-05-10T09:58:08.660Z,97910.98
2019-05-10T10:01:34.279Z,97926.64
2019-05-10T10:04:59.884Z,97938.33
2019-05-10T10:08:28.104Z,97937.66
2019-05-10T10:11:58.070Z,97928.24
2019-05-10T10:15:32.202Z,97919.81
2019-05-10T10:18:47.811Z,97932.75
2019-05-10T10:22:13.487Z,97923.59
2019-05-10T10:25:40.700Z,97932.64
2019-05-10T10:29:07.270Z,97937.84
2019-05-10T10:32:35.040Z,97939.33
2019-05-10T10:36:07.470Z,97942.83
2019-05-10T10:39:28.814Z,97927.67
2019-05-10T10:42:54.451Z,97923.32
2019-05-10T10:46:20.165Z,97920.27
2019-05-10T10:49:46.028Z,97917.56
2019-05-10T10:53:11.610Z,97921.45
2019-05-10T10:56:38.316Z,97921.59
2019-05-10T11:00:07.667Z,97909.55
2019-05-10T11:03:33.393Z,97913.50
2019-05-10T11:07:09.878Z,97909.07
2019-05-10T11:10:32.512Z,97898.25
2019-05-10T11:14:04.821Z,97901.23
2019-05-10T11:17:25.410Z,97904.75
2019-05-10T11:20:53.990Z,97918.50
2019-05-10T11:24:20.750Z,97918.25
2019-05-10T11:27:47.576Z,97906.88
2019-05-10T11:31:14.678Z,97906.86
2019-05-10T11:34:40.289Z,97900.03
2019-05-10T11:38:06.628Z,97893.94
2019-05-10T11:41:34.280Z,97892.24
2019-05-10T11:45:00.769Z,97892.80
2019-05-10T11:48:36.289Z,97893.98
2019-05-10T11:52:01.453Z,97899.66
2019-05-10T11:55:26.579Z,97902.69
2019-05-10T11:58:55.608Z,97896.55
2019-05-10T12:02:37.025Z,97894.65
2019-05-10T12:05:56.574Z,97904.52
2019-05-10T12:09:14.985Z,97890.37
2019-05-10T12:16:07.894Z,97897.30
2019-05-10T12:23:03.420Z,97886.98
2019-05-10T12:26:20.603Z,97887.97
2019-05-10T12:26:27.894Z,97885.14
2019-05-10T12:30:00.752Z,97889.61
2019-05-10T12:33:27.419Z,97883.08
2019-05-10T12:36:52.002Z,97884.94
2019-05-10T12:40:18.152Z,97874.81
2019-05-10T12:43:44.024Z,97875.98
2019-05-10T12:47:11.323Z,97876.89
2019-05-10T12:50:37.122Z,97887.17
2019-05-10T12:54:02.731Z,97877.43
2019-05-10T12:57:29.100Z,97885.00
2019-05-10T13:00:58.851Z,97873.72
2019-05-10T13:04:32.361Z,97878.76
2019-05-10T13:07:50.469Z,97894.05
2019-05-10T13:11:18.884Z,97876.05
2019-05-10T13:14:46.526Z,97890.22
2019-05-10T13:18:11.967Z,97889.29
2019-05-10T13:21:37.512Z,97876.22
2019-05-10T13:25:03.279Z,97880.75
2019-05-10T13:28:29.256Z,97887.35
2019-05-10T13:31:56.791Z,97878.23
2019-05-10T13:35:22.284Z,97874.55
2019-05-10T13:38:49.133Z,97881.97
2019-05-10T13:42:15.185Z,97879.44
2019-05-10T13:45:41.011Z,97884.34
2019-05-10T13:49:06.619Z,97886.12
2019-05-10T13:52:37.822Z,97884.16
2019-05-10T13:55:59.665Z,97873.80
2019-05-10T13:59:25.565Z,97885.98
2019-05-10T14:02:51.338Z,97873.94
2019-05-10T14:06:16.946Z,97875.86
2019-05-10T14:09:42.584Z,97871.87
2019-05-10T14:13:08.185Z,97863.11
2019-05-10T14:16:33.842Z,97855.64
2019-05-10T14:19:59.435Z,97852.39
2019-05-10T14:23:28.898Z,97849.11
2019-05-10T14:26:57.339Z,97853.80
2019-05-10T14:30:23.489Z,97871.72
2019-05-10T14:34:14.161Z,97870.83
2019-05-10T14:37:19.781Z,97868.36
2019-05-10T14:40:45.530Z,97857.47
2019-05-10T14:44:11.147Z,97864.83
2019-05-10T14:47:46.812Z,97855.14
2019-05-10T14:51:11.258Z,97846.22
2019-05-10T14:54:43.305Z,97854.86
2019-05-10T14:57:59.176Z,97864.09
2019-05-10T15:01:24.797Z,97866.67
2019-05-10T15:04:50.477Z,97867.78
2019-05-10T15:08:16.100Z,97871.45
2019-05-10T15:11:41.713Z,97870.81
2019-05-10T15:15:08.354Z,97865.85
2019-05-10T15:18:33.975Z,97871.81
2019-05-10T15:21:59.596Z,97864.52
2019-05-10T15:25:26.154Z,97868.42
2019-05-10T15:28:51.787Z,97866.44
2019-05-10T15:32:17.366Z,97872.81
2019-05-10T15:35:45.825Z,97861.63
2019-05-10T15:39:10.283Z,97848.20
2019-05-10T15:42:38.174Z,97862.62
2019-05-10T15:46:03.211Z,97865.98
2019-05-10T15:49:28.897Z,97858.52
2019-05-10T15:52:54.586Z,97844.86
2019-05-10T15:56:20.172Z,97835.79
2019-05-10T15:59:50.819Z,97822.81
2019-05-10T16:03:13.104Z,97807.97
2019-05-10T16:06:39.469Z,97816.49
2019-05-10T16:10:06.481Z,97817.55
2019-05-10T16:13:32.085Z,97838.59
2019-05-10T16:16:57.676Z,97843.39
2019-05-10T16:20:23.324Z,97844.70
2019-05-10T16:23:48.916Z,97853.51
2019-05-10T16:27:15.062Z,97861.44
2019-05-10T16:30:41.650Z,97847.98
2019-05-10T16:34:08.124Z,97854.47
2019-05-10T16:37:33.792Z,97849.95
2019-05-10T16:41:01.590Z,97841.14
2019-05-10T16:44:27.534Z,97843.74
2019-05-10T16:47:53.600Z,97852.60
2019-05-10T16:51:19.163Z,97843.55
2019-05-10T16:54:44.855Z,97845.61
2019-05-10T16:58:14.996Z,97847.00
2019-05-10T17:01:38.128Z,97845.45
2019-05-10T17:05:09.806Z,97844.64
2019-05-10T17:08:36.875Z,97849.47
2019-05-10T17:11:59.681Z,97845.31
2019-05-10T17:15:25.572Z,97835.04
2019-05-10T17:18:55.218Z,97828.75
2019-05-10T17:22:18.454Z,97839.20
2019-05-10T17:25:44.050Z,97849.02
2019-05-10T17:29:12.776Z,97837.73
2019-05-10T17:32:40.018Z,97832.25
2019-05-10T17:36:08.286Z,97839.13
2019-05-10T17:39:34.256Z,97831.54
2019-05-10T17:42:59.999Z,97843.15
2019-05-10T17:46:25.593Z,97843.47
2019-05-10T17:49:51.204Z,97839.17
2019-05-10T17:53:16.871Z,97834.39
2019-05-10T17:56:42.464Z,97833.24
2019-05-10T18:00:12.335Z,97825.94
2019-05-10T18:03:38.180Z,97827.16
2019-05-10T18:07:05.944Z,97827.09
2019-05-10T18:10:31.552Z,97826.69
2019-05-10T18:13:58.104Z,97828.20
2019-05-10T18:17:25.968Z,97825.02
2019-05-10T18:20:51.064Z,97828.86
2019-05-10T18:24:16.661Z,97833.27
2019-05-10T18:27:42.251Z,97832.19
2019-05-10T18:31:07.843Z,97831.94
2019-05-10T18:34:35.496Z,97835.00
2019-05-10T18:38:00.987Z,97847.03
2019-05-10T18:41:26.646Z,97841.94
2019-05-10T18:44:54.135Z,97837.58
2019-05-10T18:48:19.623Z,97847.45
2019-05-10T18:51:45.241Z,97850.90
2019-05-10T18:55:11.161Z,97850.97
2019-05-10T18:58:36.750Z,97850.83
2019-05-10T19:02:02.363Z,97853.90
2019-05-10T19:05:31.640Z,97864.63
2019-05-10T19:08:56.416Z,97866.23
2019-05-10T19:12:23.402Z,97863.91
2019-05-10T19:15:53.088Z,97869.70
2019-05-10T19:19:17.675Z,97871.69
2019-05-10T19:22:43.347Z,97859.31
2019-05-10T19:26:09.010Z,97856.11
2019-05-10T19:29:38.526Z,97860.47
2019-05-10T19:33:01.928Z,97869.94
2019-05-10T19:36:27.518Z,97862.65
2019-05-10T19:39:53.665Z,97864.49
2019-05-10T19:43:21.887Z,97869.70
2019-05-10T19:46:47.766Z,97869.52
2019-05-10T19:50:13.678Z,97866.13
2019-05-10T19:53:42.137Z,97860.49
2019-05-10T19:57:15.061Z,97859.52
2019-05-10T20:00:34.612Z,97846.57
2019-05-10T20:04:00.463Z,97862.14
2019-05-10T20:07:26.048Z,97868.02
2019-05-10T20:10:52.518Z,97859.31
2019-05-10T20:14:18.141Z,97845.70
2019-05-10T20:17:44.049Z,97846.03
2019-05-10T20:21:09.977Z,97853.77
2019-05-10T20:24:35.658Z,97842.42
2019-05-10T20:28:01.249Z,97835.41
2019-05-10T20:31:30.487Z,97827.80
2019-05-10T20:34:54.480Z,97824.52
2019-05-10T20:38:20.559Z,97839.69
2019-05-10T20:41:46.655Z,97838.38
2019-05-10T20:45:12.878Z,97832.88
2019-05-10T20:48:39.567Z,97817.19
2019-05-10T20:52:05.619Z,97814.05
2019-05-10T20:55:31.411Z,97813.20
2019-05-10T20:58:57.075Z,97802.20
2019-05-10T21:02:22.703Z,97798.35
2019-05-10T21:05:48.305Z,97808.87
2019-05-10T21:09:13.899Z,97810.19
2019-05-10T21:12:39.533Z,97785.34
2019-05-10T21:16:05.454Z,97785.36
2019-05-10T21:19:31.429Z,97790.23
2019-05-10T21:22:57.027Z,97789.39
2019-05-10T21:26:22.635Z,97787.89
2019-05-10T21:29:48.235Z,97785.58
2019-05-10T21:33:13.845Z,97788.58
2019-05-10T21:36:39.436Z,97792.59
2019-05-10T21:40:08.433Z,97785.41
2019-05-10T21:43:34.045Z,97755.60
2019-05-10T21:46:59.654Z,97746.28
2019-05-10T21:50:25.259Z,97743.94
2019-05-10T21:53:50.912Z,97742.09
2019-05-10T21:57:16.501Z,97740.27
2019-05-10T22:00:43.922Z,97729.78
2019-05-10T22:04:09.691Z,97731.63
2019-05-10T22:07:35.300Z,97721.45
2019-05-10T22:11:01.066Z,97705.78
2019-05-10T22:14:26.664Z,97706.28
2019-05-10T22:17:52.285Z,97703.64
2019-05-10T22:21:17.976Z,97709.30
2019-05-10T22:24:43.584Z,97705.48
2019-05-10T22:28:09.179Z,97704.30
2019-05-10T22:31:34.770Z,97695.14
2019-05-10T22:35:00.386Z,97700.16
2019-05-10T22:38:26.125Z,97696.30
2019-05-10T22:41:53.071Z,97692.47
2019-05-10T22:45:18.916Z,97689.98
2019-05-10T22:48:44.524Z,97683.98
2019-05-10T22:52:10.118Z,97682.32
2019-05-10T22:55:36.831Z,97680.14
2019-05-10T22:59:02.423Z,97681.00
2019-05-10T23:02:28.032Z,97682.98
2019-05-10T23:05:53.622Z,97684.30
2019-05-10T23:09:24.850Z,97671.17
2019-05-10T23:12:47.025Z,97667.00
2019-05-10T23:16:12.628Z,97663.17
2019-05-10T23:19:38.225Z,97660.32
2019-05-10T23:23:03.816Z,97667.95
2019-05-10T23:26:29.473Z,97663.63
2019-05-10T23:29:55.025Z,97642.98
2019-05-10T23:33:20.639Z,97637.00
2019-05-10T23:36:46.235Z,97630.50
2019-05-10T23:40:12.356Z,97620.35
2019-05-10T23:43:37.950Z,97615.69
2019-05-10T23:47:03.563Z,97601.22
2019-05-10T23:50:29.153Z,97594.04
2019-05-10T23:53:54.793Z,97589.72
2019-05-10T23:57:20.403Z,97594.88
